sensor_id;sensor_type;location;lat;lon;timestamp;pressure;altitude;pressure_sealevel;temperature;humidity
43488;BME280;29078;41.932;25.554;2023-02-16T00:00:26;100998.09;;;3.53;51.59
43488;BME280;29078;41.932;25.554;2023-02-16T00:02:52;100999.22;;;3.49;51.51
43488;BME280;29078;41.932;25.554;2023-02-16T00:07:51;100998.03;;;3.40;51.86
43488;BME280;29078;41.932;25.554;2023-02-16T00:10:17;100995.63;;;3.37;51.99
43488;BME280;29078;41.932;25.554;2023-02-16T00:12:42;100984.63;;;3.32;51.55
43488;BME280;29078;41.932;25.554;2023-02-16T00:15:26;100934.91;;;2.93;51.85
43488;BME280;29078;41.932;25.554;2023-02-16T00:17:53;101005.31;;;3.35;51.55
43488;BME280;29078;41.932;25.554;2023-02-16T00:20:19;100954.75;;;3.09;51.70
43488;BME280;29078;41.932;25.554;2023-02-16T00:22:45;100881.38;;;2.59;51.60
43488;BME280;29078;41.932;25.554;2023-02-16T00:25:10;100993.84;;;3.38;51.59
43488;BME280;29078;41.932;25.554;2023-02-16T00:27:36;100996.00;;;3.31;51.81
43488;BME280;29078;41.932;25.554;2023-02-16T00:30:14;100921.03;;;2.78;51.48
43488;BME280;29078;41.932;25.554;2023-02-16T00:32:40;100951.38;;;2.93;52.04
43488;BME280;29078;41.932;25.554;2023-02-16T00:35:23;100934.63;;;2.83;52.04
43488;BME280;29078;41.932;25.554;2023-02-16T00:37:49;100932.50;;;2.61;52.01
43488;BME280;29078;41.932;25.554;2023-02-16T00:40:15;100920.84;;;2.67;51.62
43488;BME280;29078;41.932;25.554;2023-02-16T00:42:43;100991.19;;;3.11;51.80
43488;BME280;29078;41.932;25.554;2023-02-16T00:45:19;100906.06;;;2.53;51.85
43488;BME280;29078;41.932;25.554;2023-02-16T00:47:47;100987.38;;;3.02;51.80
43488;BME280;29078;41.932;25.554;2023-02-16T00:52:45;100939.66;;;2.58;52.23
43488;BME280;29078;41.932;25.554;2023-02-16T00:55:19;100980.38;;;2.88;52.26
43488;BME280;29078;41.932;25.554;2023-02-16T00:57:53;100977.75;;;2.88;51.97
43488;BME280;29078;41.932;25.554;2023-02-16T01:00:28;100981.28;;;2.87;52.23
43488;BME280;29078;41.932;25.554;2023-02-16T01:02:57;100995.44;;;2.83;52.11
43488;BME280;29078;41.932;25.554;2023-02-16T01:05:24;100984.75;;;2.74;52.46
43488;BME280;29078;41.932;25.554;2023-02-16T01:07:49;100998.34;;;2.79;52.23
43488;BME280;29078;41.932;25.554;2023-02-16T01:10:35;100886.47;;;2.17;52.36
43488;BME280;29078;41.932;25.554;2023-02-16T01:13:21;100970.03;;;2.59;52.45
43488;BME280;29078;41.932;25.554;2023-02-16T01:15:47;100872.09;;;1.96;52.37
43488;BME280;29078;41.932;25.554;2023-02-16T01:18:16;100915.53;;;2.26;52.68
43488;BME280;29078;41.932;25.554;2023-02-16T01:20:42;100961.09;;;2.63;52.38
43488;BME280;29078;41.932;25.554;2023-02-16T01:23:07;100969.66;;;2.65;52.83
43488;BME280;29078;41.932;25.554;2023-02-16T01:25:34;100853.50;;;1.88;52.71
43488;BME280;29078;41.932;25.554;2023-02-16T01:28:00;100947.22;;;2.48;52.46
43488;BME280;29078;41.932;25.554;2023-02-16T01:30:25;100886.44;;;2.03;52.64
43488;BME280;29078;41.932;25.554;2023-02-16T01:32:51;100897.72;;;2.18;52.49
43488;BME280;29078;41.932;25.554;2023-02-16T01:35:22;100910.47;;;2.22;52.71
43488;BME280;29078;41.932;25.554;2023-02-16T01:37:49;100963.88;;;2.60;52.70
43488;BME280;29078;41.932;25.554;2023-02-16T01:42:52;100965.91;;;2.54;52.56
43488;BME280;29078;41.932;25.554;2023-02-16T01:45:33;100922.75;;;2.20;52.64
43488;BME280;29078;41.932;25.554;2023-02-16T01:48:12;100936.81;;;2.18;52.88
43488;BME280;29078;41.932;25.554;2023-02-16T01:50:48;100970.56;;;2.49;52.86
43488;BME280;29078;41.932;25.554;2023-02-16T01:53:34;100864.44;;;1.79;52.79
43488;BME280;29078;41.932;25.554;2023-02-16T01:56:04;100930.56;;;2.06;53.12
43488;BME280;29078;41.932;25.554;2023-02-16T01:58:39;100975.69;;;2.51;53.12
43488;BME280;29078;41.932;25.554;2023-02-16T02:03:44;100945.97;;;2.25;52.69
43488;BME280;29078;41.932;25.554;2023-02-16T02:06:32;100971.41;;;2.50;52.64
43488;BME280;29078;41.932;25.554;2023-02-16T02:09:04;100836.84;;;1.76;52.98
43488;BME280;29078;41.932;25.554;2023-02-16T02:12:20;100924.19;;;2.26;53.17
43488;BME280;29078;41.932;25.554;2023-02-16T02:14:37;100968.06;;;2.48;52.73
43488;BME280;29078;41.932;25.554;2023-02-16T02:17:13;100961.91;;;2.49;52.83
43488;BME280;29078;41.932;25.554;2023-02-16T02:25:45;100969.25;;;2.42;52.77
43488;BME280;29078;41.932;25.554;2023-02-16T02:31:20;100968.13;;;2.32;53.05
43488;BME280;29078;41.932;25.554;2023-02-16T02:33:53;100961.25;;;2.31;53.10
43488;BME280;29078;41.932;25.554;2023-02-16T02:36:35;100961.59;;;2.25;53.50
43488;BME280;29078;41.932;25.554;2023-02-16T02:41:52;100971.31;;;2.37;53.41
43488;BME280;29078;41.932;25.554;2023-02-16T02:44:30;100955.19;;;2.31;52.84
43488;BME280;29078;41.932;25.554;2023-02-16T02:46:57;100949.34;;;2.11;53.21
43488;BME280;29078;41.932;25.554;2023-02-16T02:49:23;100883.47;;;1.65;53.24
43488;BME280;29078;41.932;25.554;2023-02-16T02:51:49;100910.13;;;1.84;53.39
43488;BME280;29078;41.932;25.554;2023-02-16T02:54:24;100970.69;;;2.18;53.26
43488;BME280;29078;41.932;25.554;2023-02-16T02:57:42;100972.72;;;2.13;53.54
43488;BME280;29078;41.932;25.554;2023-02-16T03:03:40;100969.84;;;2.17;53.11
43488;BME280;29078;41.932;25.554;2023-02-16T03:06:10;100979.41;;;2.17;53.40
43488;BME280;29078;41.932;25.554;2023-02-16T03:08:39;100876.94;;;1.58;53.37
43488;BME280;29078;41.932;25.554;2023-02-16T03:11:14;100976.34;;;2.10;53.32
43488;BME280;29078;41.932;25.554;2023-02-16T03:14:13;100838.63;;;1.30;53.14
43488;BME280;29078;41.932;25.554;2023-02-16T03:16:45;100901.69;;;1.65;53.19
43488;BME280;29078;41.932;25.554;2023-02-16T03:19:14;100973.91;;;2.07;53.61
43488;BME280;29078;41.932;25.554;2023-02-16T03:22:00;100851.13;;;1.23;53.65
43488;BME280;29078;41.932;25.554;2023-02-16T03:24:44;100926.72;;;1.68;53.59
43488;BME280;29078;41.932;25.554;2023-02-16T03:27:34;100949.00;;;1.87;53.62
43488;BME280;29078;41.932;25.554;2023-02-16T03:30:20;100873.69;;;1.39;53.56
43488;BME280;29078;41.932;25.554;2023-02-16T03:32:46;100823.22;;;1.11;53.60
43488;BME280;29078;41.932;25.554;2023-02-16T03:35:12;100970.06;;;1.99;53.41
43488;BME280;29078;41.932;25.554;2023-02-16T03:37:39;100863.28;;;1.39;53.42
43488;BME280;29078;41.932;25.554;2023-02-16T03:40:06;100939.78;;;1.82;53.60
43488;BME280;29078;41.932;25.554;2023-02-16T03:42:51;100766.56;;;0.86;53.57
43488;BME280;29078;41.932;25.554;2023-02-16T03:45:18;100961.06;;;2.04;53.58
43488;BME280;29078;41.932;25.554;2023-02-16T03:47:44;100851.63;;;1.30;53.38
43488;BME280;29078;41.932;25.554;2023-02-16T03:50:10;100878.38;;;1.48;53.58
43488;BME280;29078;41.932;25.554;2023-02-16T03:52:35;100914.38;;;1.71;53.82
43488;BME280;29078;41.932;25.554;2023-02-16T03:55:00;100846.53;;;1.28;53.47
43488;BME280;29078;41.932;25.554;2023-02-16T03:57:26;100901.03;;;1.62;53.33
43488;BME280;29078;41.932;25.554;2023-02-16T03:59:51;100868.88;;;1.47;53.68
43488;BME280;29078;41.932;25.554;2023-02-16T04:02:19;100964.09;;;1.97;53.46
43488;BME280;29078;41.932;25.554;2023-02-16T04:04:45;100870.50;;;1.34;53.43
43488;BME280;29078;41.932;25.554;2023-02-16T04:07:11;100835.66;;;1.06;53.35
43488;BME280;29078;41.932;25.554;2023-02-16T04:09:36;100804.47;;;0.90;53.52
43488;BME280;29078;41.932;25.554;2023-02-16T04:12:02;100730.28;;;0.38;53.55
43488;BME280;29078;41.932;25.554;2023-02-16T04:14:45;100979.78;;;1.81;53.89
43488;BME280;29078;41.932;25.554;2023-02-16T04:17:11;100945.97;;;1.65;53.75
43488;BME280;29078;41.932;25.554;2023-02-16T04:19:36;100919.59;;;1.40;53.54
43488;BME280;29078;41.932;25.554;2023-02-16T04:22:01;100848.31;;;0.97;53.78
43488;BME280;29078;41.932;25.554;2023-02-16T04:24:27;100916.09;;;1.25;54.29
43488;BME280;29078;41.932;25.554;2023-02-16T04:26:52;100876.09;;;0.96;54.06
43488;BME280;29078;41.932;25.554;2023-02-16T04:29:18;100973.69;;;1.50;54.31
43488;BME280;29078;41.932;25.554;2023-02-16T04:31:43;100913.00;;;0.87;54.36
43488;BME280;29078;41.932;25.554;2023-02-16T04:34:09;100989.88;;;1.55;53.97
43488;BME280;29078;41.932;25.554;2023-02-16T04:36:34;100913.59;;;1.08;54.28
43488;BME280;29078;41.932;25.554;2023-02-16T04:38:59;100889.25;;;0.93;54.06
43488;BME280;29078;41.932;25.554;2023-02-16T04:41:25;100991.31;;;1.61;54.12
43488;BME280;29078;41.932;25.554;2023-02-16T04:43:51;100572.81;;;-1.08;54.08
43488;BME280;29078;41.932;25.554;2023-02-16T04:46:16;100855.38;;;0.79;53.85
43488;BME280;29078;41.932;25.554;2023-02-16T04:48:43;101019.88;;;1.63;54.24
43488;BME280;29078;41.932;25.554;2023-02-16T04:51:09;100871.31;;;0.88;53.71
43488;BME280;29078;41.932;25.554;2023-02-16T04:53:34;100808.38;;;0.50;53.83
43488;BME280;29078;41.932;25.554;2023-02-16T04:56:00;100878.69;;;0.80;53.85
43488;BME280;29078;41.932;25.554;2023-02-16T04:58:25;100978.59;;;0.92;54.40
43488;BME280;29078;41.932;25.554;2023-02-16T05:00:51;100879.97;;;0.56;54.12
43488;BME280;29078;41.932;25.554;2023-02-16T05:03:16;100935.56;;;0.86;54.17
43488;BME280;29078;41.932;25.554;2023-02-16T05:05:41;100744.47;;;-0.34;54.23
43488;BME280;29078;41.932;25.554;2023-02-16T05:08:07;100976.94;;;1.07;54.37
43488;BME280;29078;41.932;25.554;2023-02-16T05:10:32;100971.34;;;0.81;54.48
43488;BME280;29078;41.932;25.554;2023-02-16T05:12:58;100857.50;;;0.39;54.20
43488;BME280;29078;41.932;25.554;2023-02-16T05:15:42;101018.31;;;1.43;54.32
43488;BME280;29078;41.932;25.554;2023-02-16T05:18:07;100859.44;;;0.51;54.24
43488;BME280;29078;41.932;25.554;2023-02-16T05:20:33;100941.78;;;1.00;54.06
43488;BME280;29078;41.932;25.554;2023-02-16T05:23:16;100985.50;;;1.24;54.13
43488;BME280;29078;41.932;25.554;2023-02-16T05:25:42;100930.84;;;0.77;54.26
43488;BME280;29078;41.932;25.554;2023-02-16T05:28:07;100974.91;;;1.12;54.13
43488;BME280;29078;41.932;25.554;2023-02-16T05:30:32;100964.22;;;0.85;54.05
43488;BME280;29078;41.932;25.554;2023-02-16T05:32:58;100952.06;;;0.85;53.94
43488;BME280;29078;41.932;25.554;2023-02-16T05:35:23;101027.34;;;1.53;54.17
43488;BME280;29078;41.932;25.554;2023-02-16T05:37:49;100941.44;;;1.06;53.96
43488;BME280;29078;41.932;25.554;2023-02-16T05:40:14;100966.88;;;1.16;53.73
43488;BME280;29078;41.932;25.554;2023-02-16T05:42:40;101042.44;;;1.62;53.53
43488;BME280;29078;41.932;25.554;2023-02-16T05:45:05;100934.66;;;1.03;53.75
43488;BME280;29078;41.932;25.554;2023-02-16T05:47:31;100935.47;;;1.04;54.06
43488;BME280;29078;41.932;25.554;2023-02-16T05:49:56;100999.81;;;1.49;54.10
43488;BME280;29078;41.932;25.554;2023-02-16T05:52:21;100955.97;;;1.25;53.65
43488;BME280;29078;41.932;25.554;2023-02-16T05:54:47;100969.81;;;1.26;53.90
43488;BME280;29078;41.932;25.554;2023-02-16T05:57:12;100933.22;;;1.13;53.93
43488;BME280;29078;41.932;25.554;2023-02-16T05:59:38;100887.50;;;0.78;54.18
43488;BME280;29078;41.932;25.554;2023-02-16T06:02:03;101056.63;;;1.56;54.52
43488;BME280;29078;41.932;25.554;2023-02-16T06:04:28;100992.97;;;1.31;54.15
43488;BME280;29078;41.932;25.554;2023-02-16T06:06:54;100917.69;;;0.96;54.35
43488;BME280;29078;41.932;25.554;2023-02-16T06:09:19;101015.25;;;1.52;54.59
43488;BME280;29078;41.932;25.554;2023-02-16T06:11:45;100939.59;;;1.08;53.94
43488;BME280;29078;41.932;25.554;2023-02-16T06:14:13;101037.41;;;1.59;54.18
43488;BME280;29078;41.932;25.554;2023-02-16T06:16:41;100953.59;;;1.21;54.19
43488;BME280;29078;41.932;25.554;2023-02-16T06:19:07;101059.16;;;1.89;53.91
43488;BME280;29078;41.932;25.554;2023-02-16T06:21:34;101054.28;;;1.83;54.38
43488;BME280;29078;41.932;25.554;2023-02-16T06:24:00;100942.28;;;1.06;54.05
43488;BME280;29078;41.932;25.554;2023-02-16T06:26:26;101068.22;;;1.82;54.27
43488;BME280;29078;41.932;25.554;2023-02-16T06:28:52;101066.47;;;1.83;54.27
43488;BME280;29078;41.932;25.554;2023-02-16T06:31:18;100992.47;;;1.40;54.29
43488;BME280;29078;41.932;25.554;2023-02-16T06:33:44;100998.84;;;1.34;54.16
43488;BME280;29078;41.932;25.554;2023-02-16T06:36:10;101022.09;;;1.37;54.36
43488;BME280;29078;41.932;25.554;2023-02-16T06:38:35;100916.25;;;0.75;54.66
43488;BME280;29078;41.932;25.554;2023-02-16T06:41:01;100906.63;;;0.92;54.19
43488;BME280;29078;41.932;25.554;2023-02-16T06:43:26;100981.22;;;1.39;53.76
43488;BME280;29078;41.932;25.554;2023-02-16T06:45:52;101065.56;;;2.14;54.40
43488;BME280;29078;41.932;25.554;2023-02-16T06:48:17;101044.09;;;1.95;54.12
43488;BME280;29078;41.932;25.554;2023-02-16T06:50:42;100941.25;;;1.40;53.91
43488;BME280;29078;41.932;25.554;2023-02-16T06:53:08;101015.22;;;1.83;54.07
43488;BME280;29078;41.932;25.554;2023-02-16T06:55:33;100945.28;;;1.46;54.20
43488;BME280;29078;41.932;25.554;2023-02-16T06:58:04;101075.72;;;2.34;54.13
43488;BME280;29078;41.932;25.554;2023-02-16T07:00:30;100971.28;;;1.77;53.82
43488;BME280;29078;41.932;25.554;2023-02-16T07:02:56;100948.03;;;1.74;53.84
43488;BME280;29078;41.932;25.554;2023-02-16T07:05:21;100779.31;;;0.75;53.95
43488;BME280;29078;41.932;25.554;2023-02-16T07:07:47;101074.50;;;2.55;54.03
43488;BME280;29078;41.932;25.554;2023-02-16T07:10:12;101017.41;;;2.21;53.92
43488;BME280;29078;41.932;25.554;2023-02-16T07:12:39;101032.59;;;2.59;53.89
43488;BME280;29078;41.932;25.554;2023-02-16T07:15:05;100972.19;;;2.22;53.68
43488;BME280;29078;41.932;25.554;2023-02-16T07:17:30;101081.06;;;2.91;53.72
43488;BME280;29078;41.932;25.554;2023-02-16T07:19:56;100893.22;;;1.91;53.41
43488;BME280;29078;41.932;25.554;2023-02-16T07:22:21;101015.38;;;2.56;53.38
43488;BME280;29078;41.932;25.554;2023-02-16T07:24:46;101010.81;;;2.74;53.60
43488;BME280;29078;41.932;25.554;2023-02-16T07:27:12;101012.13;;;2.81;53.37
43488;BME280;29078;41.932;25.554;2023-02-16T07:29:37;101058.19;;;3.10;53.22
43488;BME280;29078;41.932;25.554;2023-02-16T07:32:03;101015.41;;;2.99;53.34
43488;BME280;29078;41.932;25.554;2023-02-16T07:34:29;101003.50;;;3.09;53.39
43488;BME280;29078;41.932;25.554;2023-02-16T07:36:54;100927.47;;;2.58;53.25
43488;BME280;29078;41.932;25.554;2023-02-16T07:39:20;100927.75;;;2.68;53.27
43488;BME280;29078;41.932;25.554;2023-02-16T07:41:45;101011.38;;;3.36;53.43
43488;BME280;29078;41.932;25.554;2023-02-16T07:44:11;101064.19;;;3.68;53.34
43488;BME280;29078;41.932;25.554;2023-02-16T07:46:36;101031.19;;;3.53;53.28
43488;BME280;29078;41.932;25.554;2023-02-16T07:49:02;100973.44;;;3.30;53.15
43488;BME280;29078;41.932;25.554;2023-02-16T07:51:29;101037.25;;;3.53;53.22
43488;BME280;29078;41.932;25.554;2023-02-16T07:53:56;100958.03;;;3.40;53.43
43488;BME280;29078;41.932;25.554;2023-02-16T07:56:26;100974.19;;;3.59;53.55
43488;BME280;29078;41.932;25.554;2023-02-16T07:58:55;101014.44;;;3.83;53.51
43488;BME280;29078;41.932;25.554;2023-02-16T08:01:21;100692.50;;;1.95;53.59
43488;BME280;29078;41.932;25.554;2023-02-16T08:03:47;100940.75;;;3.51;53.92
43488;BME280;29078;41.932;25.554;2023-02-16T08:06:13;100915.97;;;3.44;53.61
43488;BME280;29078;41.932;25.554;2023-02-16T08:08:39;100991.19;;;4.06;53.97
43488;BME280;29078;41.932;25.554;2023-02-16T08:11:17;100954.28;;;3.98;54.33
43488;BME280;29078;41.932;25.554;2023-02-16T08:13:44;101043.84;;;4.66;54.30
43488;BME280;29078;41.932;25.554;2023-02-16T08:16:13;101041.44;;;4.76;53.98
43488;BME280;29078;41.932;25.554;2023-02-16T08:18:39;100996.53;;;4.57;54.10
43488;BME280;29078;41.932;25.554;2023-02-16T08:21:09;101038.41;;;4.95;54.43
43488;BME280;29078;41.932;25.554;2023-02-16T08:23:45;100912.28;;;4.26;54.31
43488;BME280;29078;41.932;25.554;2023-02-16T08:26:17;100985.75;;;4.74;54.68
43488;BME280;29078;41.932;25.554;2023-02-16T08:28:47;101050.22;;;5.26;54.69
43488;BME280;29078;41.932;25.554;2023-02-16T08:31:26;101045.19;;;5.35;55.68
43488;BME280;29078;41.932;25.554;2023-02-16T08:33:56;100962.91;;;5.01;54.37
43488;BME280;29078;41.932;25.554;2023-02-16T08:36:25;101003.38;;;5.34;54.46
43488;BME280;29078;41.932;25.554;2023-02-16T08:38:53;100882.66;;;4.76;54.36
43488;BME280;29078;41.932;25.554;2023-02-16T08:41:21;101045.34;;;5.82;54.16
43488;BME280;29078;41.932;25.554;2023-02-16T08:43:48;100928.31;;;5.22;54.47
43488;BME280;29078;41.932;25.554;2023-02-16T08:46:14;101039.69;;;6.00;54.16
43488;BME280;29078;41.932;25.554;2023-02-16T08:48:40;100814.13;;;4.71;54.27
43488;BME280;29078;41.932;25.554;2023-02-16T08:51:06;100991.47;;;5.90;54.02
43488;BME280;29078;41.932;25.554;2023-02-16T08:53:33;101049.69;;;6.30;54.10
43488;BME280;29078;41.932;25.554;2023-02-16T08:56:00;100999.56;;;6.11;53.71
43488;BME280;29078;41.932;25.554;2023-02-16T08:58:30;101049.03;;;6.51;53.31
43488;BME280;29078;41.932;25.554;2023-02-16T09:00:56;101040.09;;;6.53;53.74
43488;BME280;29078;41.932;25.554;2023-02-16T09:03:22;100854.44;;;5.53;53.15
43488;BME280;29078;41.932;25.554;2023-02-16T09:05:49;101052.47;;;6.75;52.88
43488;BME280;29078;41.932;25.554;2023-02-16T09:08:16;101044.72;;;6.85;53.36
43488;BME280;29078;41.932;25.554;2023-02-16T09:10:42;100960.59;;;6.18;53.15
43488;BME280;29078;41.932;25.554;2023-02-16T09:13:07;101049.41;;;7.04;52.71
43488;BME280;29078;41.932;25.554;2023-02-16T09:15:45;101023.72;;;6.96;53.14
43488;BME280;29078;41.932;25.554;2023-02-16T09:18:12;100965.56;;;6.67;52.55
43488;BME280;29078;41.932;25.554;2023-02-16T09:20:39;100930.03;;;6.63;52.77
43488;BME280;29078;41.932;25.554;2023-02-16T09:23:06;101041.06;;;7.43;52.45
43488;BME280;29078;41.932;25.554;2023-02-16T09:25:36;100940.56;;;6.85;52.06
43488;BME280;29078;41.932;25.554;2023-02-16T09:28:03;101043.78;;;7.64;51.93
43488;BME280;29078;41.932;25.554;2023-02-16T09:30:29;101065.75;;;7.74;51.64
43488;BME280;29078;41.932;25.554;2023-02-16T09:32:54;100901.16;;;6.85;51.53
43488;BME280;29078;41.932;25.554;2023-02-16T09:35:20;100935.47;;;7.27;50.87
43488;BME280;29078;41.932;25.554;2023-02-16T09:37:46;101029.69;;;7.97;51.10
43488;BME280;29078;41.932;25.554;2023-02-16T09:40:14;100898.00;;;7.25;50.85
43488;BME280;29078;41.932;25.554;2023-02-16T09:43:14;101029.28;;;8.13;50.49
43488;BME280;29078;41.932;25.554;2023-02-16T09:45:35;101016.38;;;8.10;50.61
43488;BME280;29078;41.932;25.554;2023-02-16T09:48:02;100974.00;;;7.92;50.89
43488;BME280;29078;41.932;25.554;2023-02-16T09:50:31;100973.00;;;8.04;50.69
43488;BME280;29078;41.932;25.554;2023-02-16T09:53:01;100978.31;;;8.25;50.32
43488;BME280;29078;41.932;25.554;2023-02-16T09:55:48;101006.66;;;8.53;50.03
43488;BME280;29078;41.932;25.554;2023-02-16T09:58:27;100949.63;;;8.22;50.01
43488;BME280;29078;41.932;25.554;2023-02-16T10:01:02;100892.03;;;8.08;49.65
43488;BME280;29078;41.932;25.554;2023-02-16T10:06:34;100993.63;;;9.03;49.83
43488;BME280;29078;41.932;25.554;2023-02-16T10:09:06;100940.66;;;8.76;49.64
43488;BME280;29078;41.932;25.554;2023-02-16T10:16:39;100972.53;;;9.43;49.52
43488;BME280;29078;41.932;25.554;2023-02-16T10:19:36;100924.91;;;9.35;48.97
43488;BME280;29078;41.932;25.554;2023-02-16T10:22:05;100973.97;;;9.76;48.92
43488;BME280;29078;41.932;25.554;2023-02-16T10:24:55;100960.38;;;9.81;49.27
43488;BME280;29078;41.932;25.554;2023-02-16T10:27:25;100864.56;;;9.32;48.46
43488;BME280;29078;41.932;25.554;2023-02-16T10:29:51;100867.78;;;9.45;48.44
43488;BME280;29078;41.932;25.554;2023-02-16T10:32:29;100646.38;;;8.20;48.55
43488;BME280;29078;41.932;25.554;2023-02-16T10:35:11;100867.50;;;9.58;48.65
43488;BME280;29078;41.932;25.554;2023-02-16T10:43:03;100944.94;;;10.44;48.15
43488;BME280;29078;41.932;25.554;2023-02-16T10:46:10;100942.28;;;10.54;48.42
43488;BME280;29078;41.932;25.554;2023-02-16T10:48:29;100936.13;;;10.63;47.73
43488;BME280;29078;41.932;25.554;2023-02-16T10:51:00;100932.91;;;10.69;47.21
43488;BME280;29078;41.932;25.554;2023-02-16T10:53:41;100923.44;;;10.76;46.91
43488;BME280;29078;41.932;25.554;2023-02-16T10:58:48;100919.47;;;10.90;47.14
43488;BME280;29078;41.932;25.554;2023-02-16T11:01:18;100779.25;;;10.09;47.03
43488;BME280;29078;41.932;25.554;2023-02-16T11:03:47;100854.41;;;10.61;46.52
43488;BME280;29078;41.932;25.554;2023-02-16T11:08:47;100880.78;;;10.71;46.54
43488;BME280;29078;41.932;25.554;2023-02-16T11:11:14;100809.03;;;10.48;46.34
43488;BME280;29078;41.932;25.554;2023-02-16T11:13:41;100873.50;;;10.82;46.59
43488;BME280;29078;41.932;25.554;2023-02-16T11:16:18;100855.28;;;10.79;46.30
43488;BME280;29078;41.932;25.554;2023-02-16T11:18:48;100888.78;;;11.06;45.96
43488;BME280;29078;41.932;25.554;2023-02-16T11:21:20;100770.00;;;10.42;46.30
43488;BME280;29078;41.932;25.554;2023-02-16T11:23:57;100709.56;;;10.02;46.09
43488;BME280;29078;41.932;25.554;2023-02-16T11:26:25;100812.41;;;10.68;45.66
43488;BME280;29078;41.932;25.554;2023-02-16T11:28:50;100867.72;;;11.14;45.48
43488;BME280;29078;41.932;25.554;2023-02-16T11:31:37;100860.66;;;11.15;44.88
43488;BME280;29078;41.932;25.554;2023-02-16T11:34:07;100770.34;;;10.57;44.99
43488;BME280;29078;41.932;25.554;2023-02-16T11:36:38;100856.94;;;11.08;45.29
43488;BME280;29078;41.932;25.554;2023-02-16T11:39:16;100750.13;;;10.38;45.11
43488;BME280;29078;41.932;25.554;2023-02-16T11:41:51;100851.78;;;11.06;44.44
43488;BME280;29078;41.932;25.554;2023-02-16T11:44:41;100850.66;;;11.09;44.75
43488;BME280;29078;41.932;25.554;2023-02-16T11:50:22;100849.81;;;11.08;43.35
43488;BME280;29078;41.932;25.554;2023-02-16T11:53:12;100840.91;;;11.09;43.91
43488;BME280;29078;41.932;25.554;2023-02-16T11:55:41;100683.81;;;10.13;43.66
43488;BME280;29078;41.932;25.554;2023-02-16T11:58:22;100832.06;;;11.01;42.79
43488;BME280;29078;41.932;25.554;2023-02-16T12:11:47;100747.78;;;10.35;43.60
43488;BME280;29078;41.932;25.554;2023-02-16T12:19:44;100795.56;;;10.69;44.17
43488;BME280;29078;41.932;25.554;2023-02-16T12:27:48;100784.16;;;10.68;44.37
43488;BME280;29078;41.932;25.554;2023-02-16T12:42:04;100778.97;;;10.76;44.03
43488;BME280;29078;41.932;25.554;2023-02-16T12:44:17;100741.13;;;10.58;44.62
43488;BME280;29078;41.932;25.554;2023-02-16T12:46:47;100691.81;;;10.31;43.94
43488;BME280;29078;41.932;25.554;2023-02-16T12:49:24;100711.31;;;10.48;44.20
43488;BME280;29078;41.932;25.554;2023-02-16T12:52:10;100747.50;;;10.65;44.12
43488;BME280;29078;41.932;25.554;2023-02-16T12:54:45;100758.53;;;10.78;44.05
43488;BME280;29078;41.932;25.554;2023-02-16T12:57:15;100676.41;;;10.27;44.31
43488;BME280;29078;41.932;25.554;2023-02-16T12:59:56;100749.91;;;10.76;44.15
43488;BME280;29078;41.932;25.554;2023-02-16T13:02:27;100748.09;;;10.77;44.55
43488;BME280;29078;41.932;25.554;2023-02-16T13:04:57;100748.03;;;10.69;44.02
43488;BME280;29078;41.932;25.554;2023-02-16T13:07:30;100593.44;;;9.84;44.22
43488;BME280;29078;41.932;25.554;2023-02-16T13:10:19;100751.56;;;10.77;44.50
43488;BME280;29078;41.932;25.554;2023-02-16T13:12:54;100734.91;;;10.77;43.75
43488;BME280;29078;41.932;25.554;2023-02-16T13:15:25;100733.75;;;10.79;43.41
43488;BME280;29078;41.932;25.554;2023-02-16T13:17:57;100600.28;;;10.04;44.16
43488;BME280;29078;41.932;25.554;2023-02-16T13:20:26;100714.66;;;10.86;44.19
43488;BME280;29078;41.932;25.554;2023-02-16T13:31:26;100659.81;;;10.62;43.23
43488;BME280;29078;41.932;25.554;2023-02-16T13:42:09;100711.03;;;11.04;43.32
43488;BME280;29078;41.932;25.554;2023-02-16T13:44:46;100704.09;;;11.03;42.68
43488;BME280;29078;41.932;25.554;2023-02-16T13:47:19;100648.34;;;10.71;43.37
43488;BME280;29078;41.932;25.554;2023-02-16T13:49:55;100673.53;;;10.83;43.42
43488;BME280;29078;41.932;25.554;2023-02-16T13:52:36;100648.03;;;10.56;42.61
43488;BME280;29078;41.932;25.554;2023-02-16T13:55:19;100691.63;;;10.96;43.01
43488;BME280;29078;41.932;25.554;2023-02-16T14:05:24;100703.63;;;11.26;42.85
43488;BME280;29078;41.932;25.554;2023-02-16T14:08:18;100697.72;;;11.32;42.60
43488;BME280;29078;41.932;25.554;2023-02-16T14:13:19;100672.88;;;11.25;42.41
43488;BME280;29078;41.932;25.554;2023-02-16T14:15:52;100692.84;;;11.45;42.14
43488;BME280;29078;41.932;25.554;2023-02-16T14:21:04;100710.19;;;11.39;41.76
43488;BME280;29078;41.932;25.554;2023-02-16T14:23:32;100692.91;;;11.53;41.43
43488;BME280;29078;41.932;25.554;2023-02-16T14:26:06;100558.88;;;10.76;41.32
43488;BME280;29078;41.932;25.554;2023-02-16T14:28:49;100687.34;;;11.64;41.69
43488;BME280;29078;41.932;25.554;2023-02-16T14:31:19;100678.97;;;11.77;40.89
43488;BME280;29078;41.932;25.554;2023-02-16T14:34:26;100678.13;;;11.94;40.89
43488;BME280;29078;41.932;25.554;2023-02-16T14:37:23;100679.72;;;12.21;40.00
43488;BME280;29078;41.932;25.554;2023-02-16T14:39:52;100677.28;;;12.44;39.60
43488;BME280;29078;41.932;25.554;2023-02-16T14:42:31;100676.16;;;12.63;39.58
43488;BME280;29078;41.932;25.554;2023-02-16T14:47:51;100671.56;;;12.81;38.02
43488;BME280;29078;41.932;25.554;2023-02-16T14:54:06;100689.63;;;13.02;38.12
43488;BME280;29078;41.932;25.554;2023-02-16T14:56:43;100618.56;;;12.73;38.28
43488;BME280;29078;41.932;25.554;2023-02-16T14:59:33;100673.59;;;13.20;38.06
43488;BME280;29078;41.932;25.554;2023-02-16T15:02:00;100666.28;;;13.30;38.15